sensor_id;sensor_type;location;lat;lon;timestamp;P1;durP1;ratioP1;P2;durP2;ratioP2
9420;SDS011;4749;51.398;5.466;2023-07-16T00:00:38;6.38;;;2.22;;
9420;SDS011;4749;51.398;5.466;2023-07-16T00:03:06;10.55;;;2.63;;
9420;SDS011;4749;51.398;5.466;2023-07-16T00:05:33;8.07;;;2.22;;
9420;SDS011;4749;51.398;5.466;2023-07-16T00:08:02;4.95;;;2.17;;
9420;SDS011;4749;51.398;5.466;2023-07-16T00:10:30;10.55;;;2.55;;
9420;SDS011;4749;51.398;5.466;2023-07-16T00:13:03;6.00;;;2.30;;
9420;SDS011;4749;51.398;5.466;2023-07-16T00:15:31;4.63;;;2.55;;
9420;SDS011;4749;51.398;5.466;2023-07-16T00:17:58;6.05;;;2.30;;
9420;SDS011;4749;51.398;5.466;2023-07-16T00:20:25;5.63;;;2.53;;
9420;SDS011;4749;51.398;5.466;2023-07-16T00:22:52;6.57;;;2.75;;
9420;SDS011;4749;51.398;5.466;2023-07-16T00:25:20;8.60;;;3.05;;
9420;SDS011;4749;51.398;5.466;2023-07-16T00:27:47;5.65;;;2.85;;
9420;SDS011;4749;51.398;5.466;2023-07-16T00:30:14;4.82;;;2.90;;
9420;SDS011;4749;51.398;5.466;2023-07-16T00:32:41;3.72;;;2.75;;
9420;SDS011;4749;51.398;5.466;2023-07-16T00:35:08;5.55;;;3.03;;
9420;SDS011;4749;51.398;5.466;2023-07-16T00:37:35;5.63;;;2.83;;
9420;SDS011;4749;51.398;5.466;2023-07-16T00:40:03;5.82;;;2.80;;
9420;SDS011;4749;51.398;5.466;2023-07-16T00:42:31;6.55;;;3.28;;
9420;SDS011;4749;51.398;5.466;2023-07-16T00:44:58;7.00;;;2.83;;
9420;SDS011;4749;51.398;5.466;2023-07-16T00:47:25;5.95;;;2.80;;
9420;SDS011;4749;51.398;5.466;2023-07-16T00:49:52;4.82;;;2.80;;
9420;SDS011;4749;51.398;5.466;2023-07-16T00:52:19;5.30;;;2.70;;
9420;SDS011;4749;51.398;5.466;2023-07-16T00:54:48;4.18;;;2.83;;
9420;SDS011;4749;51.398;5.466;2023-07-16T00:57:15;7.22;;;2.90;;
9420;SDS011;4749;51.398;5.466;2023-07-16T00:59:43;5.57;;;3.30;;
9420;SDS011;4749;51.398;5.466;2023-07-16T01:02:10;7.63;;;3.05;;
9420;SDS011;4749;51.398;5.466;2023-07-16T01:04:37;5.82;;;2.60;;
9420;SDS011;4749;51.398;5.466;2023-07-16T01:07:05;6.45;;;2.95;;
9420;SDS011;4749;51.398;5.466;2023-07-16T01:09:38;6.07;;;2.40;;
9420;SDS011;4749;51.398;5.466;2023-07-16T01:12:09;9.88;;;2.75;;
9420;SDS011;4749;51.398;5.466;2023-07-16T01:14:37;7.15;;;3.08;;
9420;SDS011;4749;51.398;5.466;2023-07-16T01:17:06;6.70;;;3.00;;
9420;SDS011;4749;51.398;5.466;2023-07-16T01:19:34;3.97;;;2.28;;
9420;SDS011;4749;51.398;5.466;2023-07-16T01:22:46;4.15;;;2.42;;
9420;SDS011;4749;51.398;5.466;2023-07-16T01:30:26;8.73;;;2.47;;
9420;SDS011;4749;51.398;5.466;2023-07-16T01:32:55;5.63;;;2.60;;
9420;SDS011;4749;51.398;5.466;2023-07-16T01:35:23;7.93;;;2.80;;
9420;SDS011;4749;51.398;5.466;2023-07-16T01:37:51;5.72;;;2.53;;
9420;SDS011;4749;51.398;5.466;2023-07-16T01:40:18;6.47;;;2.30;;
9420;SDS011;4749;51.398;5.466;2023-07-16T01:42:46;8.32;;;3.25;;
9420;SDS011;4749;51.398;5.466;2023-07-16T01:45:13;4.97;;;2.35;;
9420;SDS011;4749;51.398;5.466;2023-07-16T01:50:22;8.20;;;2.63;;
9420;SDS011;4749;51.398;5.466;2023-07-16T01:52:49;7.47;;;2.78;;
9420;SDS011;4749;51.398;5.466;2023-07-16T01:55:16;6.18;;;2.92;;
9420;SDS011;4749;51.398;5.466;2023-07-16T01:57:43;7.97;;;2.90;;
9420;SDS011;4749;51.398;5.466;2023-07-16T02:00:10;5.63;;;3.08;;
9420;SDS011;4749;51.398;5.466;2023-07-16T02:02:37;9.88;;;3.00;;
9420;SDS011;4749;51.398;5.466;2023-07-16T02:05:05;7.65;;;2.70;;
9420;SDS011;4749;51.398;5.466;2023-07-16T02:07:32;6.28;;;3.03;;
9420;SDS011;4749;51.398;5.466;2023-07-16T02:09:59;6.60;;;3.35;;
9420;SDS011;4749;51.398;5.466;2023-07-16T02:12:26;8.48;;;3.00;;
9420;SDS011;4749;51.398;5.466;2023-07-16T02:14:53;5.53;;;2.90;;
9420;SDS011;4749;51.398;5.466;2023-07-16T02:17:20;7.93;;;3.00;;
9420;SDS011;4749;51.398;5.466;2023-07-16T02:19:47;6.20;;;3.20;;
9420;SDS011;4749;51.398;5.466;2023-07-16T02:22:14;5.28;;;2.83;;
9420;SDS011;4749;51.398;5.466;2023-07-16T02:24:41;6.18;;;2.78;;
9420;SDS011;4749;51.398;5.466;2023-07-16T02:27:08;8.85;;;2.97;;
9420;SDS011;4749;51.398;5.466;2023-07-16T02:29:35;6.18;;;2.90;;
9420;SDS011;4749;51.398;5.466;2023-07-16T02:32:03;7.78;;;2.85;;
9420;SDS011;4749;51.398;5.466;2023-07-16T02:34:30;9.00;;;3.03;;
9420;SDS011;4749;51.398;5.466;2023-07-16T02:36:57;7.38;;;2.58;;
9420;SDS011;4749;51.398;5.466;2023-07-16T02:39:24;8.65;;;3.20;;
9420;SDS011;4749;51.398;5.466;2023-07-16T02:41:51;4.95;;;2.80;;
9420;SDS011;4749;51.398;5.466;2023-07-16T02:44:19;7.63;;;2.83;;
9420;SDS011;4749;51.398;5.466;2023-07-16T02:46:46;10.13;;;3.03;;
9420;SDS011;4749;51.398;5.466;2023-07-16T02:49:13;10.05;;;2.70;;
9420;SDS011;4749;51.398;5.466;2023-07-16T02:51:40;9.35;;;2.67;;
9420;SDS011;4749;51.398;5.466;2023-07-16T02:54:07;7.13;;;2.78;;
9420;SDS011;4749;51.398;5.466;2023-07-16T02:56:34;7.03;;;2.63;;
9420;SDS011;4749;51.398;5.466;2023-07-16T02:59:01;5.40;;;2.38;;
9420;SDS011;4749;51.398;5.466;2023-07-16T03:01:28;11.48;;;2.72;;
9420;SDS011;4749;51.398;5.466;2023-07-16T03:03:56;7.07;;;2.85;;
9420;SDS011;4749;51.398;5.466;2023-07-16T03:06:23;6.95;;;2.70;;
9420;SDS011;4749;51.398;5.466;2023-07-16T03:08:50;8.77;;;2.65;;
9420;SDS011;4749;51.398;5.466;2023-07-16T03:11:17;6.05;;;2.47;;
9420;SDS011;4749;51.398;5.466;2023-07-16T03:13:44;7.85;;;3.35;;
9420;SDS011;4749;51.398;5.466;2023-07-16T03:16:12;7.65;;;3.13;;
9420;SDS011;4749;51.398;5.466;2023-07-16T03:18:39;5.32;;;3.17;;
9420;SDS011;4749;51.398;5.466;2023-07-16T03:21:06;7.90;;;3.10;;
9420;SDS011;4749;51.398;5.466;2023-07-16T03:23:34;6.47;;;3.20;;
9420;SDS011;4749;51.398;5.466;2023-07-16T03:26:01;9.52;;;3.08;;
9420;SDS011;4749;51.398;5.466;2023-07-16T03:28:28;7.85;;;3.10;;
9420;SDS011;4749;51.398;5.466;2023-07-16T03:30:55;11.98;;;3.35;;
9420;SDS011;4749;51.398;5.466;2023-07-16T03:33:22;9.73;;;2.83;;
9420;SDS011;4749;51.398;5.466;2023-07-16T03:35:50;9.40;;;3.30;;
9420;SDS011;4749;51.398;5.466;2023-07-16T03:38:17;7.72;;;3.08;;
9420;SDS011;4749;51.398;5.466;2023-07-16T03:40:48;12.55;;;3.58;;
9420;SDS011;4749;51.398;5.466;2023-07-16T03:43:16;9.25;;;2.67;;
9420;SDS011;4749;51.398;5.466;2023-07-16T03:45:43;7.50;;;3.30;;
9420;SDS011;4749;51.398;5.466;2023-07-16T03:48:11;11.98;;;3.33;;
9420;SDS011;4749;51.398;5.466;2023-07-16T03:50:38;6.97;;;3.33;;
9420;SDS011;4749;51.398;5.466;2023-07-16T03:53:05;10.02;;;3.08;;
9420;SDS011;4749;51.398;5.466;2023-07-16T03:55:32;8.48;;;3.50;;
9420;SDS011;4749;51.398;5.466;2023-07-16T03:58:00;9.10;;;3.10;;
9420;SDS011;4749;51.398;5.466;2023-07-16T04:00:27;6.78;;;2.95;;
9420;SDS011;4749;51.398;5.466;2023-07-16T04:02:54;9.13;;;3.40;;
9420;SDS011;4749;51.398;5.466;2023-07-16T04:05:21;12.63;;;4.13;;
9420;SDS011;4749;51.398;5.466;2023-07-16T04:07:50;10.18;;;3.78;;
9420;SDS011;4749;51.398;5.466;2023-07-16T04:10:17;11.88;;;3.83;;
9420;SDS011;4749;51.398;5.466;2023-07-16T04:12:44;8.43;;;3.70;;
9420;SDS011;4749;51.398;5.466;2023-07-16T04:15:11;9.93;;;3.40;;
9420;SDS011;4749;51.398;5.466;2023-07-16T04:17:38;10.65;;;3.72;;
9420;SDS011;4749;51.398;5.466;2023-07-16T04:20:06;8.82;;;3.95;;
9420;SDS011;4749;51.398;5.466;2023-07-16T04:22:34;9.00;;;3.67;;
9420;SDS011;4749;51.398;5.466;2023-07-16T04:25:02;10.82;;;3.97;;
9420;SDS011;4749;51.398;5.466;2023-07-16T04:27:30;8.25;;;3.90;;
9420;SDS011;4749;51.398;5.466;2023-07-16T04:29:57;8.48;;;3.80;;
9420;SDS011;4749;51.398;5.466;2023-07-16T04:32:24;12.45;;;4.03;;
9420;SDS011;4749;51.398;5.466;2023-07-16T04:34:52;9.57;;;3.35;;
9420;SDS011;4749;51.398;5.466;2023-07-16T04:37:19;7.72;;;4.07;;
9420;SDS011;4749;51.398;5.466;2023-07-16T04:39:47;14.70;;;3.90;;
9420;SDS011;4749;51.398;5.466;2023-07-16T04:42:14;10.82;;;3.85;;
9420;SDS011;4749;51.398;5.466;2023-07-16T04:44:43;10.48;;;3.50;;
9420;SDS011;4749;51.398;5.466;2023-07-16T04:47:10;9.30;;;4.30;;
9420;SDS011;4749;51.398;5.466;2023-07-16T04:49:37;10.23;;;4.13;;
9420;SDS011;4749;51.398;5.466;2023-07-16T04:52:05;9.38;;;4.07;;
9420;SDS011;4749;51.398;5.466;2023-07-16T04:54:36;8.80;;;4.03;;
9420;SDS011;4749;51.398;5.466;2023-07-16T04:57:05;8.90;;;3.90;;
9420;SDS011;4749;51.398;5.466;2023-07-16T04:59:33;7.60;;;3.78;;
9420;SDS011;4749;51.398;5.466;2023-07-16T05:02:05;8.70;;;3.92;;
9420;SDS011;4749;51.398;5.466;2023-07-16T05:04:33;6.55;;;3.50;;
9420;SDS011;4749;51.398;5.466;2023-07-16T05:07:02;11.63;;;4.43;;
9420;SDS011;4749;51.398;5.466;2023-07-16T05:09:30;10.20;;;4.25;;
9420;SDS011;4749;51.398;5.466;2023-07-16T05:11:57;8.90;;;3.58;;
9420;SDS011;4749;51.398;5.466;2023-07-16T05:14:25;12.85;;;3.90;;
9420;SDS011;4749;51.398;5.466;2023-07-16T05:16:57;9.02;;;3.85;;
9420;SDS011;4749;51.398;5.466;2023-07-16T05:19:24;11.10;;;3.97;;
9420;SDS011;4749;51.398;5.466;2023-07-16T05:21:52;10.20;;;4.15;;
9420;SDS011;4749;51.398;5.466;2023-07-16T05:24:19;8.02;;;3.97;;
9420;SDS011;4749;51.398;5.466;2023-07-16T05:26:46;13.25;;;4.07;;
9420;SDS011;4749;51.398;5.466;2023-07-16T05:29:13;11.70;;;3.97;;
9420;SDS011;4749;51.398;5.466;2023-07-16T05:31:42;10.07;;;4.43;;
9420;SDS011;4749;51.398;5.466;2023-07-16T05:34:09;9.50;;;4.20;;
9420;SDS011;4749;51.398;5.466;2023-07-16T05:36:36;19.50;;;3.70;;
9420;SDS011;4749;51.398;5.466;2023-07-16T05:39:03;8.60;;;3.97;;
9420;SDS011;4749;51.398;5.466;2023-07-16T05:41:30;10.75;;;4.20;;
9420;SDS011;4749;51.398;5.466;2023-07-16T05:43:57;12.30;;;4.65;;
9420;SDS011;4749;51.398;5.466;2023-07-16T05:46:24;12.60;;;4.63;;
9420;SDS011;4749;51.398;5.466;2023-07-16T05:48:51;11.63;;;4.90;;
9420;SDS011;4749;51.398;5.466;2023-07-16T05:51:19;8.77;;;4.60;;
9420;SDS011;4749;51.398;5.466;2023-07-16T05:53:46;10.18;;;4.35;;
9420;SDS011;4749;51.398;5.466;2023-07-16T05:56:13;8.07;;;3.92;;
9420;SDS011;4749;51.398;5.466;2023-07-16T05:58:40;13.00;;;4.30;;
9420;SDS011;4749;51.398;5.466;2023-07-16T06:01:08;11.02;;;4.30;;
9420;SDS011;4749;51.398;5.466;2023-07-16T06:03:35;11.10;;;4.32;;
9420;SDS011;4749;51.398;5.466;2023-07-16T06:06:03;9.18;;;4.30;;
9420;SDS011;4749;51.398;5.466;2023-07-16T06:08:30;14.13;;;4.55;;
9420;SDS011;4749;51.398;5.466;2023-07-16T06:10:57;8.82;;;4.60;;
9420;SDS011;4749;51.398;5.466;2023-07-16T06:13:24;7.25;;;4.32;;
9420;SDS011;4749;51.398;5.466;2023-07-16T06:15:51;12.60;;;4.70;;
9420;SDS011;4749;51.398;5.466;2023-07-16T06:18:18;9.20;;;4.70;;
9420;SDS011;4749;51.398;5.466;2023-07-16T06:20:47;10.95;;;5.10;;
9420;SDS011;4749;51.398;5.466;2023-07-16T06:23:15;9.55;;;4.53;;
9420;SDS011;4749;51.398;5.466;2023-07-16T06:25:43;7.95;;;4.80;;
9420;SDS011;4749;51.398;5.466;2023-07-16T06:28:10;11.73;;;5.35;;
9420;SDS011;4749;51.398;5.466;2023-07-16T06:30:38;11.25;;;5.18;;
9420;SDS011;4749;51.398;5.466;2023-07-16T06:33:05;9.10;;;4.72;;
9420;SDS011;4749;51.398;5.466;2023-07-16T06:35:33;10.73;;;5.10;;
9420;SDS011;4749;51.398;5.466;2023-07-16T06:38:01;11.27;;;5.40;;
9420;SDS011;4749;51.398;5.466;2023-07-16T06:40:29;12.63;;;5.32;;
9420;SDS011;4749;51.398;5.466;2023-07-16T06:42:57;15.90;;;5.53;;
9420;SDS011;4749;51.398;5.466;2023-07-16T06:45:24;15.32;;;5.75;;
9420;SDS011;4749;51.398;5.466;2023-07-16T06:47:52;8.95;;;5.30;;
9420;SDS011;4749;51.398;5.466;2023-07-16T06:50:19;10.90;;;5.03;;
9420;SDS011;4749;51.398;5.466;2023-07-16T06:52:46;16.30;;;5.55;;
9420;SDS011;4749;51.398;5.466;2023-07-16T06:55:13;9.73;;;5.20;;
9420;SDS011;4749;51.398;5.466;2023-07-16T06:57:40;14.45;;;5.63;;
9420;SDS011;4749;51.398;5.466;2023-07-16T07:00:07;13.93;;;6.03;;
9420;SDS011;4749;51.398;5.466;2023-07-16T07:02:38;13.90;;;5.03;;
9420;SDS011;4749;51.398;5.466;2023-07-16T07:05:05;9.98;;;5.15;;
9420;SDS011;4749;51.398;5.466;2023-07-16T07:07:33;9.65;;;5.32;;
9420;SDS011;4749;51.398;5.466;2023-07-16T07:10:00;11.80;;;5.10;;
9420;SDS011;4749;51.398;5.466;2023-07-16T07:12:27;13.75;;;5.18;;
9420;SDS011;4749;51.398;5.466;2023-07-16T07:14:54;9.57;;;5.90;;
9420;SDS011;4749;51.398;5.466;2023-07-16T07:17:21;11.88;;;5.32;;
9420;SDS011;4749;51.398;5.466;2023-07-16T07:19:49;11.60;;;5.43;;
9420;SDS011;4749;51.398;5.466;2023-07-16T07:22:16;10.60;;;5.07;;
9420;SDS011;4749;51.398;5.466;2023-07-16T07:24:47;11.75;;;5.63;;
9420;SDS011;4749;51.398;5.466;2023-07-16T07:27:14;14.38;;;5.10;;
9420;SDS011;4749;51.398;5.466;2023-07-16T07:29:41;11.00;;;5.60;;
9420;SDS011;4749;51.398;5.466;2023-07-16T07:32:08;12.95;;;5.55;;
9420;SDS011;4749;51.398;5.466;2023-07-16T07:34:35;12.38;;;5.38;;
9420;SDS011;4749;51.398;5.466;2023-07-16T07:37:02;6.90;;;4.65;;
9420;SDS011;4749;51.398;5.466;2023-07-16T07:39:30;7.57;;;4.72;;
9420;SDS011;4749;51.398;5.466;2023-07-16T07:41:57;11.80;;;5.43;;
9420;SDS011;4749;51.398;5.466;2023-07-16T07:44:24;9.88;;;5.47;;
9420;SDS011;4749;51.398;5.466;2023-07-16T07:46:51;10.70;;;5.45;;
9420;SDS011;4749;51.398;5.466;2023-07-16T07:49:18;13.88;;;5.50;;
9420;SDS011;4749;51.398;5.466;2023-07-16T07:51:45;11.85;;;5.40;;
9420;SDS011;4749;51.398;5.466;2023-07-16T07:54:15;12.30;;;5.43;;
9420;SDS011;4749;51.398;5.466;2023-07-16T07:56:44;14.00;;;5.47;;
9420;SDS011;4749;51.398;5.466;2023-07-16T07:59:12;10.30;;;5.50;;
9420;SDS011;4749;51.398;5.466;2023-07-16T08:01:39;7.60;;;4.90;;
9420;SDS011;4749;51.398;5.466;2023-07-16T08:04:06;11.45;;;5.53;;
9420;SDS011;4749;51.398;5.466;2023-07-16T08:06:34;9.80;;;4.50;;
9420;SDS011;4749;51.398;5.466;2023-07-16T08:09:01;13.30;;;4.78;;
9420;SDS011;4749;51.398;5.466;2023-07-16T08:11:28;11.65;;;5.00;;
9420;SDS011;4749;51.398;5.466;2023-07-16T08:13:56;7.20;;;4.78;;
9420;SDS011;4749;51.398;5.466;2023-07-16T08:16:23;14.55;;;5.30;;
9420;SDS011;4749;51.398;5.466;2023-07-16T08:18:50;8.85;;;4.53;;
9420;SDS011;4749;51.398;5.466;2023-07-16T08:21:17;8.82;;;4.97;;
9420;SDS011;4749;51.398;5.466;2023-07-16T08:23:48;8.55;;;5.38;;
9420;SDS011;4749;51.398;5.466;2023-07-16T08:26:16;9.57;;;4.32;;
9420;SDS011;4749;51.398;5.466;2023-07-16T08:28:45;12.32;;;5.07;;
9420;SDS011;4749;51.398;5.466;2023-07-16T08:31:12;8.35;;;4.80;;
9420;SDS011;4749;51.398;5.466;2023-07-16T08:33:39;9.68;;;5.05;;
9420;SDS011;4749;51.398;5.466;2023-07-16T08:36:07;10.65;;;4.60;;
9420;SDS011;4749;51.398;5.466;2023-07-16T08:38:37;9.07;;;5.07;;
9420;SDS011;4749;51.398;5.466;2023-07-16T08:41:04;8.60;;;4.60;;
9420;SDS011;4749;51.398;5.466;2023-07-16T08:43:31;8.30;;;4.10;;
9420;SDS011;4749;51.398;5.466;2023-07-16T08:46:00;7.57;;;4.55;;
9420;SDS011;4749;51.398;5.466;2023-07-16T08:48:29;15.45;;;5.57;;
9420;SDS011;4749;51.398;5.466;2023-07-16T08:50:57;7.03;;;4.40;;
9420;SDS011;4749;51.398;5.466;2023-07-16T08:53:28;8.98;;;4.55;;
9420;SDS011;4749;51.398;5.466;2023-07-16T08:55:56;8.98;;;4.15;;
9420;SDS011;4749;51.398;5.466;2023-07-16T08:58:24;9.85;;;4.80;;
9420;SDS011;4749;51.398;5.466;2023-07-16T09:00:51;9.55;;;4.50;;
9420;SDS011;4749;51.398;5.466;2023-07-16T09:03:19;13.77;;;4.95;;
9420;SDS011;4749;51.398;5.466;2023-07-16T09:05:46;11.38;;;4.32;;
9420;SDS011;4749;51.398;5.466;2023-07-16T09:08:14;9.23;;;4.55;;
9420;SDS011;4749;51.398;5.466;2023-07-16T09:10:41;9.65;;;4.45;;
9420;SDS011;4749;51.398;5.466;2023-07-16T09:13:10;9.40;;;4.15;;
9420;SDS011;4749;51.398;5.466;2023-07-16T09:15:38;8.55;;;3.58;;
9420;SDS011;4749;51.398;5.466;2023-07-16T09:18:07;7.75;;;4.07;;
9420;SDS011;4749;51.398;5.466;2023-07-16T09:20:37;10.27;;;4.80;;
9420;SDS011;4749;51.398;5.466;2023-07-16T09:23:06;8.55;;;4.00;;
9420;SDS011;4749;51.398;5.466;2023-07-16T09:25:35;8.68;;;3.78;;
9420;SDS011;4749;51.398;5.466;2023-07-16T09:28:02;9.18;;;4.00;;
9420;SDS011;4749;51.398;5.466;2023-07-16T09:30:33;9.30;;;3.78;;
9420;SDS011;4749;51.398;5.466;2023-07-16T09:33:11;9.80;;;3.90;;
9420;SDS011;4749;51.398;5.466;2023-07-16T09:35:42;7.53;;;3.92;;
9420;SDS011;4749;51.398;5.466;2023-07-16T09:38:10;6.72;;;3.80;;
9420;SDS011;4749;51.398;5.466;2023-07-16T09:40:41;9.43;;;3.50;;
9420;SDS011;4749;51.398;5.466;2023-07-16T09:43:09;9.10;;;3.85;;
9420;SDS011;4749;51.398;5.466;2023-07-16T09:45:38;6.93;;;3.20;;
9420;SDS011;4749;51.398;5.466;2023-07-16T09:48:06;5.85;;;2.97;;
9420;SDS011;4749;51.398;5.466;2023-07-16T09:50:33;6.38;;;3.38;;
9420;SDS011;4749;51.398;5.466;2023-07-16T09:53:05;6.43;;;3.13;;
9420;SDS011;4749;51.398;5.466;2023-07-16T09:55:34;5.78;;;2.88;;
9420;SDS011;4749;51.398;5.466;2023-07-16T09:58:04;5.20;;;2.50;;
9420;SDS011;4749;51.398;5.466;2023-07-16T10:00:36;7.32;;;3.33;;
9420;SDS011;4749;51.398;5.466;2023-07-16T10:03:09;6.80;;;3.08;;
9420;SDS011;4749;51.398;5.466;2023-07-16T10:05:37;5.88;;;3.08;;
9420;SDS011;4749;51.398;5.466;2023-07-16T10:08:14;8.38;;;3.20;;
9420;SDS011;4749;51.398;5.466;2023-07-16T10:10:54;7.57;;;2.85;;
9420;SDS011;4749;51.398;5.466;2023-07-16T10:13:26;8.25;;;3.22;;
9420;SDS011;4749;51.398;5.466;2023-07-16T10:15:55;5.70;;;3.35;;
9420;SDS011;4749;51.398;5.466;2023-07-16T10:18:26;7.53;;;3.03;;
9420;SDS011;4749;51.398;5.466;2023-07-16T10:21:02;7.30;;;3.20;;
9420;SDS011;4749;51.398;5.466;2023-07-16T10:23:41;5.25;;;3.20;;
9420;SDS011;4749;51.398;5.466;2023-07-16T10:26:11;5.95;;;2.88;;
9420;SDS011;4749;51.398;5.466;2023-07-16T10:28:45;7.72;;;3.25;;
9420;SDS011;4749;51.398;5.466;2023-07-16T10:31:20;6.47;;;2.95;;
9420;SDS011;4749;51.398;5.466;2023-07-16T10:33:57;6.65;;;3.38;;
9420;SDS011;4749;51.398;5.466;2023-07-16T10:36:40;6.47;;;3.63;;
9420;SDS011;4749;51.398;5.466;2023-07-16T10:39:08;8.30;;;3.25;;
9420;SDS011;4749;51.398;5.466;2023-07-16T10:41:35;7.15;;;3.58;;
9420;SDS011;4749;51.398;5.466;2023-07-16T10:44:02;7.97;;;3.85;;
9420;SDS011;4749;51.398;5.466;2023-07-16T10:46:30;6.63;;;3.40;;
9420;SDS011;4749;51.398;5.466;2023-07-16T10:49:00;6.80;;;3.83;;
9420;SDS011;4749;51.398;5.466;2023-07-16T10:51:27;7.90;;;3.50;;
9420;SDS011;4749;51.398;5.466;2023-07-16T10:53:55;8.10;;;3.20;;
9420;SDS011;4749;51.398;5.466;2023-07-16T10:56:23;8.85;;;3.60;;
9420;SDS011;4749;51.398;5.466;2023-07-16T10:58:52;6.18;;;3.42;;
9420;SDS011;4749;51.398;5.466;2023-07-16T11:01:19;6.43;;;3.67;;
9420;SDS011;4749;51.398;5.466;2023-07-16T11:03:47;5.15;;;2.95;;
9420;SDS011;4749;51.398;5.466;2023-07-16T11:06:14;6.47;;;3.38;;
9420;SDS011;4749;51.398;5.466;2023-07-16T11:08:45;8.10;;;3.10;;
9420;SDS011;4749;51.398;5.466;2023-07-16T11:11:12;6.40;;;3.75;;
9420;SDS011;4749;51.398;5.466;2023-07-16T11:13:39;6.28;;;3.30;;
9420;SDS011;4749;51.398;5.466;2023-07-16T11:16:09;6.35;;;3.10;;
9420;SDS011;4749;51.398;5.466;2023-07-16T11:18:37;9.77;;;4.32;;
9420;SDS011;4749;51.398;5.466;2023-07-16T11:21:04;5.57;;;3.20;;
9420;SDS011;4749;51.398;5.466;2023-07-16T11:23:34;4.65;;;3.00;;
9420;SDS011;4749;51.398;5.466;2023-07-16T11:26:02;6.25;;;3.28;;
9420;SDS011;4749;51.398;5.466;2023-07-16T11:28:40;8.63;;;3.55;;
9420;SDS011;4749;51.398;5.466;2023-07-16T11:31:15;6.07;;;3.58;;
9420;SDS011;4749;51.398;5.466;2023-07-16T11:33:47;7.90;;;3.45;;
9420;SDS011;4749;51.398;5.466;2023-07-16T11:36:16;6.70;;;3.50;;
9420;SDS011;4749;51.398;5.466;2023-07-16T11:38:43;5.63;;;3.53;;
9420;SDS011;4749;51.398;5.466;2023-07-16T11:41:11;8.60;;;3.70;;
9420;SDS011;4749;51.398;5.466;2023-07-16T11:43:39;7.57;;;3.40;;
9420;SDS011;4749;51.398;5.466;2023-07-16T11:46:14;6.78;;;3.58;;
9420;SDS011;4749;51.398;5.466;2023-07-16T11:48:44;5.82;;;3.47;;
9420;SDS011;4749;51.398;5.466;2023-07-16T11:51:11;6.45;;;3.60;;
9420;SDS011;4749;51.398;5.466;2023-07-16T11:53:39;5.47;;;3.13;;
9420;SDS011;4749;51.398;5.466;2023-07-16T11:56:07;7.40;;;3.20;;
9420;SDS011;4749;51.398;5.466;2023-07-16T11:58:36;6.93;;;3.45;;
9420;SDS011;4749;51.398;5.466;2023-07-16T12:01:05;6.88;;;3.38;;
9420;SDS011;4749;51.398;5.466;2023-07-16T12:03:33;10.50;;;3.58;;
9420;SDS011;4749;51.398;5.466;2023-07-16T12:06:04;7.47;;;3.67;;
9420;SDS011;4749;51.398;5.466;2023-07-16T12:08:31;7.25;;;3.60;;
9420;SDS011;4749;51.398;5.466;2023-07-16T12:11:00;4.30;;;3.40;;
9420;SDS011;4749;51.398;5.466;2023-07-16T12:13:28;9.07;;;3.75;;
9420;SDS011;4749;51.398;5.466;2023-07-16T12:15:55;7.95;;;3.38;;
9420;SDS011;4749;51.398;5.466;2023-07-16T12:18:22;9.13;;;3.92;;
9420;SDS011;4749;51.398;5.466;2023-07-16T12:20:50;8.93;;;3.38;;
9420;SDS011;4749;51.398;5.466;2023-07-16T12:23:18;9.48;;;3.50;;
9420;SDS011;4749;51.398;5.466;2023-07-16T12:25:46;4.70;;;2.83;;
9420;SDS011;4749;51.398;5.466;2023-07-16T12:28:14;7.45;;;3.67;;
9420;SDS011;4749;51.398;5.466;2023-07-16T12:30:42;6.90;;;3.65;;
9420;SDS011;4749;51.398;5.466;2023-07-16T12:33:10;6.38;;;3.63;;
9420;SDS011;4749;51.398;5.466;2023-07-16T12:35:37;7.40;;;3.17;;
9420;SDS011;4749;51.398;5.466;2023-07-16T12:38:04;6.75;;;3.90;;
9420;SDS011;4749;51.398;5.466;2023-07-16T12:40:31;7.97;;;3.33;;
9420;SDS011;4749;51.398;5.466;2023-07-16T12:43:06;7.90;;;3.92;;
9420;SDS011;4749;51.398;5.466;2023-07-16T12:45:33;9.48;;;3.25;;
9420;SDS011;4749;51.398;5.466;2023-07-16T12:48:01;7.35;;;3.55;;
9420;SDS011;4749;51.398;5.466;2023-07-16T12:50:29;6.47;;;3.50;;
9420;SDS011;4749;51.398;5.466;2023-07-16T12:52:56;7.80;;;3.80;;
9420;SDS011;4749;51.398;5.466;2023-07-16T12:55:23;6.57;;;3.83;;
9420;SDS011;4749;51.398;5.466;2023-07-16T12:57:50;8.32;;;3.40;;
9420;SDS011;4749;51.398;5.466;2023-07-16T13:00:17;8.15;;;4.30;;
9420;SDS011;4749;51.398;5.466;2023-07-16T13:02:45;7.43;;;3.20;;
9420;SDS011;4749;51.398;5.466;2023-07-16T13:05:12;5.75;;;3.80;;
9420;SDS011;4749;51.398;5.466;2023-07-16T13:07:47;4.85;;;3.17;;
9420;SDS011;4749;51.398;5.466;2023-07-16T13:10:18;5.97;;;3.22;;
9420;SDS011;4749;51.398;5.466;2023-07-16T13:12:49;6.40;;;3.50;;
9420;SDS011;4749;51.398;5.466;2023-07-16T13:15:17;8.25;;;3.58;;
9420;SDS011;4749;51.398;5.466;2023-07-16T13:17:44;7.28;;;3.45;;
9420;SDS011;4749;51.398;5.466;2023-07-16T13:20:11;8.95;;;4.13;;
9420;SDS011;4749;51.398;5.466;2023-07-16T13:22:38;6.93;;;3.25;;
9420;SDS011;4749;51.398;5.466;2023-07-16T13:25:07;5.88;;;3.55;;
9420;SDS011;4749;51.398;5.466;2023-07-16T13:27:34;7.05;;;3.58;;
9420;SDS011;4749;51.398;5.466;2023-07-16T13:30:01;5.97;;;3.30;;
9420;SDS011;4749;51.398;5.466;2023-07-16T13:32:29;7.70;;;3.78;;
9420;SDS011;4749;51.398;5.466;2023-07-16T13:34:56;6.50;;;3.15;;
9420;SDS011;4749;51.398;5.466;2023-07-16T13:37:24;4.68;;;2.95;;
9420;SDS011;4749;51.398;5.466;2023-07-16T13:39:51;6.75;;;3.40;;
9420;SDS011;4749;51.398;5.466;2023-07-16T13:42:18;7.60;;;3.13;;
9420;SDS011;4749;51.398;5.466;2023-07-16T13:44:49;8.50;;;3.55;;
9420;SDS011;4749;51.398;5.466;2023-07-16T13:47:16;5.50;;;2.95;;
9420;SDS011;4749;51.398;5.466;2023-07-16T13:49:44;5.13;;;2.65;;
9420;SDS011;4749;51.398;5.466;2023-07-16T13:52:12;6.03;;;3.28;;
9420;SDS011;4749;51.398;5.466;2023-07-16T13:54:41;9.02;;;2.97;;
9420;SDS011;4749;51.398;5.466;2023-07-16T13:57:08;5.80;;;2.72;;
9420;SDS011;4749;51.398;5.466;2023-07-16T13:59:36;7.57;;;3.13;;
9420;SDS011;4749;51.398;5.466;2023-07-16T14:02:03;4.60;;;3.15;;
9420;SDS011;4749;51.398;5.466;2023-07-16T14:04:31;7.68;;;2.85;;
9420;SDS011;4749;51.398;5.466;2023-07-16T14:06:59;5.63;;;3.25;;
9420;SDS011;4749;51.398;5.466;2023-07-16T14:09:26;7.68;;;3.38;;
9420;SDS011;4749;51.398;5.466;2023-07-16T14:11:53;7.00;;;2.72;;
9420;SDS011;4749;51.398;5.466;2023-07-16T14:14:21;5.30;;;2.88;;
9420;SDS011;4749;51.398;5.466;2023-07-16T14:16:48;4.97;;;2.40;;
9420;SDS011;4749;51.398;5.466;2023-07-16T14:19:16;6.55;;;2.83;;
9420;SDS011;4749;51.398;5.466;2023-07-16T14:21:43;5.63;;;2.53;;
9420;SDS011;4749;51.398;5.466;2023-07-16T14:24:10;5.35;;;2.60;;
9420;SDS011;4749;51.398;5.466;2023-07-16T14:26:37;4.70;;;2.85;;
9420;SDS011;4749;51.398;5.466;2023-07-16T14:29:04;8.45;;;3.15;;
9420;SDS011;4749;51.398;5.466;2023-07-16T14:31:32;5.60;;;2.80;;
9420;SDS011;4749;51.398;5.466;2023-07-16T14:34:00;6.97;;;2.90;;
9420;SDS011;4749;51.398;5.466;2023-07-16T14:36:27;5.25;;;2.80;;
9420;SDS011;4749;51.398;5.466;2023-07-16T14:38:55;5.38;;;3.00;;
9420;SDS011;4749;51.398;5.466;2023-07-16T14:41:22;6.45;;;3.33;;
9420;SDS011;4749;51.398;5.466;2023-07-16T14:43:49;4.93;;;2.95;;
9420;SDS011;4749;51.398;5.466;2023-07-16T14:46:16;5.22;;;2.50;;
9420;SDS011;4749;51.398;5.466;2023-07-16T14:48:44;4.40;;;2.72;;
9420;SDS011;4749;51.398;5.466;2023-07-16T14:51:12;5.40;;;2.85;;
9420;SDS011;4749;51.398;5.466;2023-07-16T14:53:39;6.82;;;2.88;;
9420;SDS011;4749;51.398;5.466;2023-07-16T14:56:06;4.93;;;2.50;;
9420;SDS011;4749;51.398;5.466;2023-07-16T14:58:34;10.25;;;3.20;;
9420;SDS011;4749;51.398;5.466;2023-07-16T15:01:02;5.53;;;3.00;;
9420;SDS011;4749;51.398;5.466;2023-07-16T15:03:34;6.13;;;3.30;;
9420;SDS011;4749;51.398;5.466;2023-07-16T15:06:03;10.98;;;3.17;;
9420;SDS011;4749;51.398;5.466;2023-07-16T15:08:30;5.13;;;2.53;;
9420;SDS011;4749;51.398;5.466;2023-07-16T15:11:01;7.80;;;3.22;;
9420;SDS011;4749;51.398;5.466;2023-07-16T15:13:45;6.70;;;3.10;;
9420;SDS011;4749;51.398;5.466;2023-07-16T15:16:12;6.13;;;2.72;;
9420;SDS011;4749;51.398;5.466;2023-07-16T15:18:40;6.68;;;3.03;;
9420;SDS011;4749;51.398;5.466;2023-07-16T15:21:07;6.38;;;3.10;;
9420;SDS011;4749;51.398;5.466;2023-07-16T15:23:34;6.28;;;3.10;;
9420;SDS011;4749;51.398;5.466;2023-07-16T15:26:03;6.32;;;3.10;;